Time;durP1;ratioP1;P1;durP2;ratioP2;P2;SDS_P1;SDS_P2;PMS_P1;PMS_P2;Temp;Humidity;BMP_temperature;BMP_pressure;BME280_temperature;BME280_humidity;BME280_pressure;Samples;Min_cycle;Max_cycle;Signal;HPM_P1;HPM_P2
2022/04/18 00:00:33;;;;;;;25.40;8.43;;;;;;;16.08;nan;101353.34;4740722;30;20489;-88
2022/04/18 00:03:03;;;;;;;24.03;7.30;;;;;;;16.07;nan;101348.88;4755881;30;20505;-88
2022/04/18 00:05:32;;;;;;;22.23;7.90;;;;;;;16.09;nan;101350.38;4770337;30;20471;-88
2022/04/18 00:08:01;;;;;;;28.10;6.87;;;;;;;16.07;nan;101354.41;4770823;30;20456;-89
2022/04/18 00:10:29;;;;;;;16.63;6.83;;;;;;;16.07;nan;101346.13;4784143;29;20451;-89
2022/04/18 00:12:58;;;;;;;24.80;6.73;;;;;;;15.96;nan;101333.88;4817385;29;20480;-88
2022/04/18 00:15:26;;;;;;;19.97;7.83;;;;;;;16.04;nan;101335.53;4846389;29;20459;-89
2022/04/18 00:17:54;;;;;;;26.80;7.73;;;;;;;16.07;nan;101340.63;4817101;29;20447;-89
2022/04/18 00:20:22;;;;;;;27.40;8.13;;;;;;;16.04;nan;101330.88;4829208;29;20863;-89
2022/04/18 00:22:50;;;;;;;19.67;7.50;;;;;;;16.03;nan;101331.06;4831554;29;20962;-89
2022/04/18 00:25:18;;;;;;;15.77;7.20;;;;;;;16.01;nan;101338.72;4847017;29;20463;-88
2022/04/18 00:27:46;;;;;;;20.77;7.80;;;;;;;16.02;nan;101332.13;4831654;29;20456;-89
2022/04/18 00:30:14;;;;;;;26.70;7.30;;;;;;;16.03;nan;101345.72;4877090;29;20463;-89
2022/04/18 00:32:42;;;;;;;25.80;7.20;;;;;;;16.07;nan;101340.63;4831925;29;20519;-89
2022/04/18 00:35:11;;;;;;;23.73;7.10;;;;;;;16.07;nan;101340.63;4816728;29;20459;-89
2022/04/18 00:37:40;;;;;;;21.23;7.20;;;;;;;16.07;nan;101335.09;4846991;29;20448;-88
2022/04/18 00:40:11;;;;;;;21.47;7.50;;;;;;;16.05;nan;101331.72;4817404;29;20447;-89
2022/04/18 00:42:43;;;;;;;23.33;7.33;;;;;;;16.04;nan;101336.38;4817565;29;20463;-89
2022/04/18 00:45:11;;;;;;;28.03;7.77;;;;;;;16.06;nan;101339.78;4816307;29;20990;-89
2022/04/18 00:47:39;;;;;;;20.33;6.57;;;;;;;16.03;nan;101334.69;4788987;29;20522;-89
2022/04/18 00:50:07;;;;;;;27.87;7.87;;;;;;;16.01;nan;101333.19;4805628;29;20582;-89
2022/04/18 00:52:36;;;;;;;24.77;7.47;;;;;;;16.01;nan;101331.28;4790556;29;20455;-89
2022/04/18 00:55:06;;;;;;;22.27;6.00;;;;;;;16.02;nan;101329.38;4805537;29;20466;-89
2022/04/18 00:57:34;;;;;;;22.20;6.77;;;;;;;16.00;nan;101324.06;4791167;29;20458;-90
2022/04/18 01:00:03;;;;;;;18.30;6.83;;;;;;;16.00;nan;101317.72;4776491;29;20458;-90
2022/04/18 01:02:32;;;;;;;17.47;6.53;;;;;;;15.94;nan;101310.31;4805988;29;20539;-90
2022/04/18 01:05:00;;;;;;;19.83;7.03;;;;;;;16.00;nan;101323.22;4814381;29;20444;-90
2022/04/18 01:07:28;;;;;;;17.77;5.90;;;;;;;15.96;nan;101319.22;4831030;29;20973;-89
2022/04/18 01:09:57;;;;;;;26.47;7.30;;;;;;;15.90;nan;101312.66;4836553;29;20862;-90
2022/04/18 01:12:25;;;;;;;32.10;7.33;;;;;;;15.89;nan;101292.50;4798513;29;20456;-90
2022/04/18 01:14:53;;;;;;;23.30;6.40;;;;;;;15.87;nan;101300.16;4805872;29;20452;-90
2022/04/18 01:17:21;;;;;;;19.20;6.90;;;;;;;15.83;nan;101298.88;4830931;29;20474;-90
2022/04/18 01:19:50;;;;;;;24.40;6.77;;;;;;;15.91;nan;101297.81;4795041;29;20480;-89
2022/04/18 01:22:22;;;;;;;15.80;6.87;;;;;;;15.93;nan;101298.44;4787638;30;20455;-90
2022/04/18 01:30:35;;;;;;;20.70;6.40;;;;;;;15.91;nan;101291.47;4807918;29;20461;-89
2022/04/18 01:33:04;;;;;;;18.17;5.53;;;;;;;15.91;nan;101288.69;4789867;29;20464;-90
2022/04/18 01:35:32;;;;;;;30.10;6.90;;;;;;;15.90;nan;101285.09;4793276;29;20464;-90
2022/04/18 01:38:00;;;;;;;23.27;6.30;;;;;;;15.91;nan;101281.28;4789813;29;20461;-90
2022/04/18 01:40:28;;;;;;;23.90;6.53;;;;;;;15.85;nan;101284.88;4776131;29;20966;-90
2022/04/18 01:42:56;;;;;;;21.60;6.63;;;;;;;15.83;nan;101279.59;4785607;29;20468;-90
2022/04/18 01:45:26;;;;;;;17.57;6.50;;;;;;;15.72;nan;101263.72;4827958;29;20459;-90
2022/04/18 01:47:54;;;;;;;17.63;5.73;;;;;;;15.77;nan;101269.44;4844639;29;20508;-91
2022/04/18 01:50:21;;;;;;;14.80;5.57;;;;;;;15.69;nan;101258.63;4815461;29;20902;-90
2022/04/18 01:52:49;;;;;;;13.20;5.37;;;;;;;15.75;nan;101267.97;4815758;29;20463;-90
2022/04/18 01:55:17;;;;;;;16.97;5.47;;;;;;;15.71;nan;101264.78;4815037;29;20482;-89
2022/04/18 01:57:45;;;;;;;20.30;5.80;;;;;;;15.74;nan;101258.84;4822343;29;20495;-89
2022/04/18 02:00:14;;;;;;;19.53;5.53;;;;;;;15.72;nan;101271.13;4814625;29;21017;-89
2022/04/18 02:02:42;;;;;;;9.20;4.80;;;;;;;15.73;nan;101264.56;4830159;29;20463;-90
2022/04/18 02:05:10;;;;;;;19.37;5.63;;;;;;;15.65;nan;101243.59;4830165;29;20463;-90
2022/04/18 02:07:38;;;;;;;10.70;4.60;;;;;;;15.72;nan;101260.97;4811726;29;20460;-89
2022/04/18 02:10:10;;;;;;;8.47;4.67;;;;;;;15.69;nan;101260.53;4816599;29;20850;-89
2022/04/18 02:12:38;;;;;;;22.73;5.43;;;;;;;15.68;nan;101258.84;4861260;29;20460;-90
2022/04/18 02:15:07;;;;;;;12.50;4.17;;;;;;;15.66;nan;101248.03;4815262;29;20451;-90
2022/04/18 02:17:35;;;;;;;21.27;4.70;;;;;;;15.70;nan;101260.31;4835843;29;20455;-89
2022/04/18 02:20:06;;;;;;;15.40;4.30;;;;;;;15.64;nan;101255.66;4818911;29;20486;-89
2022/04/18 02:22:34;;;;;;;12.43;4.80;;;;;;;15.59;nan;101251.88;4834961;29;20464;-89
2022/04/18 02:25:03;;;;;;;18.77;5.57;;;;;;;15.65;nan;101243.59;4829169;29;20468;-89
2022/04/18 02:27:30;;;;;;;19.53;5.03;;;;;;;15.60;nan;101256.31;4829862;29;20977;-89
2022/04/18 02:29:58;;;;;;;25.77;5.30;;;;;;;15.55;nan;101251.41;4814927;29;20479;-89
2022/04/18 02:35:12;;;;;;;18.63;4.60;;;;;;;15.47;nan;101246.97;4847531;29;20454;-89
2022/04/18 02:37:40;;;;;;;10.63;4.17;;;;;;;15.48;nan;101259.69;4835605;29;20447;-89
2022/04/18 02:40:09;;;;;;;14.03;4.30;;;;;;;15.42;nan;101254.16;4859670;29;20459;-89
2022/04/18 02:42:37;;;;;;;13.43;3.93;;;;;;;15.43;nan;101261.38;4814836;29;20931;-90
2022/04/18 02:45:05;;;;;;;15.93;4.93;;;;;;;15.38;nan;101259.28;4814799;29;20557;-89
2022/04/18 02:47:34;;;;;;;11.60;3.90;;;;;;;15.36;nan;101255.03;4829954;29;20467;-90
2022/04/18 02:50:02;;;;;;;12.80;4.40;;;;;;;15.34;nan;101257.16;4859329;29;20483;-88
2022/04/18 02:52:31;;;;;;;11.03;3.80;;;;;;;15.27;nan;101245.28;4829742;29;20464;-90
2022/04/18 02:54:59;;;;;;;16.63;5.10;;;;;;;15.28;nan;101258.84;4814347;29;20541;-90
2022/04/18 02:57:29;;;;;;;11.77;4.67;;;;;;;15.23;nan;101255.03;4814342;29;20491;-90
2022/04/18 02:59:58;;;;;;;13.33;4.20;;;;;;;15.19;nan;101244.47;4844620;29;20455;-90
2022/04/18 03:02:26;;;;;;;12.93;4.93;;;;;;;15.21;nan;101256.09;4859744;29;20459;-89
2022/04/18 03:04:53;;;;;;;15.70;4.50;;;;;;;15.20;nan;101256.31;4813905;29;20455;-89
2022/04/18 03:07:22;;;;;;;13.33;4.30;;;;;;;15.14;nan;101237.88;4814148;29;20455;-89
2022/04/18 03:09:50;;;;;;;17.20;3.77;;;;;;;15.21;nan;101264.34;4814506;29;20479;-89
2022/04/18 03:12:18;;;;;;;9.23;3.10;;;;;;;15.17;nan;101246.56;4829398;29;20456;-89
2022/04/18 03:14:45;;;;;;;10.53;4.07;;;;;;;15.25;nan;101261.19;4844452;29;20447;-89
2022/04/18 03:17:13;;;;;;;17.33;4.30;;;;;;;15.13;nan;101242.53;4828810;29;20460;-89
2022/04/18 03:19:41;;;;;;;9.37;3.87;;;;;;;15.17;nan;101246.56;4833737;29;20484;-90
2022/04/18 03:22:08;;;;;;;12.80;4.60;;;;;;;15.18;nan;101248.28;4878060;29;20466;-90
2022/04/18 03:24:36;;;;;;;10.90;3.37;;;;;;;15.17;nan;101246.56;4868486;29;20461;-90
2022/04/18 03:27:06;;;;;;;13.83;4.30;;;;;;;15.18;nan;101252.94;4862562;29;20459;-90
2022/04/18 03:29:35;;;;;;;17.17;4.43;;;;;;;15.18;nan;101253.78;4847966;29;20512;-90
2022/04/18 03:32:11;;;;;;;13.33;4.00;;;;;;;15.18;nan;101256.53;4836150;29;20458;-90
2022/04/18 03:34:39;;;;;;;10.03;4.57;;;;;;;15.12;nan;101251.88;4847552;29;20473;-92
2022/04/18 03:39:56;;;;;;;9.03;3.60;;;;;;;15.07;nan;101246.13;4809013;29;20457;-90
2022/04/18 03:42:32;;;;;;;10.50;4.07;;;;;;;15.13;nan;101249.97;4792745;29;20456;-90
2022/04/18 03:45:02;;;;;;;13.30;4.10;;;;;;;15.12;nan;101249.09;4793725;29;20457;-90
2022/04/18 03:47:30;;;;;;;16.33;4.60;;;;;;;15.07;nan;101242.53;4803295;29;20957;-90
2022/04/18 03:49:57;;;;;;;17.30;4.47;;;;;;;15.03;nan;101238.50;4806519;29;20524;-89
2022/04/18 03:52:25;;;;;;;9.07;4.00;;;;;;;14.98;nan;101230.91;4821632;29;20460;-90
2022/04/18 03:54:53;;;;;;;17.40;3.63;;;;;;;15.08;nan;101245.06;4806702;29;20472;-88
2022/04/18 03:57:21;;;;;;;13.30;4.20;;;;;;;15.09;nan;101244.03;4836143;29;20442;-89
2022/04/18 03:59:50;;;;;;;14.97;4.43;;;;;;;15.06;nan;101238.94;4862922;29;20455;-89
2022/04/18 04:02:19;;;;;;;9.03;3.40;;;;;;;15.08;nan;101242.31;4864610;29;20830;-89
2022/04/18 04:04:47;;;;;;;21.07;5.50;;;;;;;15.08;nan;101246.97;4865040;29;20462;-90
2022/04/18 04:07:15;;;;;;;14.47;3.90;;;;;;;15.07;nan;101240.63;4835812;29;20457;-89
2022/04/18 04:09:43;;;;;;;22.47;4.83;;;;;;;15.01;nan;101233.22;4850154;29;21021;-89
2022/04/18 04:12:12;;;;;;;12.80;3.87;;;;;;;14.90;nan;101225.59;4809365;29;21006;-90
2022/04/18 04:14:40;;;;;;;19.03;5.57;;;;;;;14.95;nan;101224.97;4824564;29;20460;-88
2022/04/18 04:17:07;;;;;;;20.43;4.80;;;;;;;15.00;nan;101239.81;4778417;29;20484;-90
2022/04/18 04:19:36;;;;;;;13.10;4.37;;;;;;;14.99;nan;101248.25;4780112;29;20851;-89
2022/04/18 04:22:04;;;;;;;16.07;4.90;;;;;;;14.99;nan;101249.13;4795072;29;20459;-89
2022/04/18 04:24:32;;;;;;;12.33;3.80;;;;;;;14.94;nan;101246.13;4805988;29;20459;-90
2022/04/18 04:27:01;;;;;;;9.77;4.07;;;;;;;14.99;nan;101245.50;4820863;29;20465;-89
2022/04/18 04:29:29;;;;;;;17.93;4.20;;;;;;;14.92;nan;101242.75;4829794;29;21033;-90
2022/04/18 04:31:57;;;;;;;23.63;5.43;;;;;;;14.91;nan;101243.81;4816765;29;20459;-90
2022/04/18 04:34:24;;;;;;;15.07;4.73;;;;;;;14.90;nan;101244.00;4831523;29;20825;-90
2022/04/18 04:36:53;;;;;;;17.53;4.20;;;;;;;14.86;nan;101238.06;4830240;29;20481;-90
2022/04/18 04:39:22;;;;;;;24.17;5.07;;;;;;;14.89;nan;101245.91;4863191;29;20812;-90
2022/04/18 04:41:49;;;;;;;13.10;4.50;;;;;;;14.88;nan;101246.97;4831207;29;20459;-88
2022/04/18 04:44:17;;;;;;;16.40;4.90;;;;;;;14.89;nan;101239.56;4831486;29;20463;-89
2022/04/18 04:46:45;;;;;;;17.33;4.07;;;;;;;14.87;nan;101239.75;4831518;29;20482;-88
2022/04/18 04:49:13;;;;;;;14.00;4.73;;;;;;;14.86;nan;101238.06;4831407;29;20460;-89
2022/04/18 04:51:41;;;;;;;19.43;4.90;;;;;;;14.89;nan;101236.81;4816266;29;20455;-90
2022/04/18 04:54:09;;;;;;;23.77;4.70;;;;;;;14.83;nan;101228.31;4815568;29;20573;-88
2022/04/18 04:56:37;;;;;;;13.87;4.20;;;;;;;14.87;nan;101245.28;4845891;29;20455;-88
2022/04/18 04:59:05;;;;;;;18.77;5.83;;;;;;;14.84;nan;101240.19;4831191;29;20950;-90
2022/04/18 05:01:34;;;;;;;14.57;4.57;;;;;;;14.82;nan;101232.13;4831407;29;20451;-89
2022/04/18 05:04:03;;;;;;;16.00;4.90;;;;;;;14.85;nan;101233.63;4830910;29;20462;-90
2022/04/18 05:06:31;;;;;;;16.83;4.40;;;;;;;14.76;nan;101227.50;4845603;29;20454;-89
2022/04/18 05:08:59;;;;;;;19.60;3.83;;;;;;;14.86;nan;101238.06;4830999;29;20466;-89
2022/04/18 05:11:27;;;;;;;23.03;4.27;;;;;;;14.84;nan;101229.16;4816464;29;20485;-89
2022/04/18 05:13:56;;;;;;;22.23;5.03;;;;;;;14.83;nan;101221.97;4830746;29;20486;-90
2022/04/18 05:16:24;;;;;;;22.20;7.00;;;;;;;14.92;nan;101228.97;4858413;29;20456;-90
2022/04/18 05:18:52;;;;;;;17.20;4.70;;;;;;;14.87;nan;101223.25;4845413;29;20500;-89
2022/04/18 05:21:21;;;;;;;14.80;4.17;;;;;;;14.82;nan;101220.28;4864623;29;20484;-90
2022/04/18 05:23:49;;;;;;;24.57;4.93;;;;;;;14.76;nan;101227.50;4879371;29;20462;-89
2022/04/18 05:26:17;;;;;;;18.00;4.27;;;;;;;14.79;nan;101237.22;4817426;29;20466;-89
2022/04/18 05:28:46;;;;;;;16.70;5.03;;;;;;;14.73;nan;101236.16;4849292;29;20523;-90
2022/04/18 05:31:17;;;;;;;13.33;4.57;;;;;;;14.68;nan;101237.81;4863613;29;20482;-89
2022/04/18 05:33:45;;;;;;;24.13;5.23;;;;;;;14.74;nan;101245.25;4863870;29;20511;-89
2022/04/18 05:36:14;;;;;;;14.00;4.40;;;;;;;14.75;nan;101247.81;4813353;29;20464;-88
2022/04/18 05:38:42;;;;;;;23.43;5.10;;;;;;;14.71;nan;101240.16;4848763;29;20462;-89
2022/04/18 05:41:11;;;;;;;20.37;5.70;;;;;;;14.67;nan;101236.13;4833900;29;20458;-89
2022/04/18 05:43:40;;;;;;;25.67;4.93;;;;;;;14.68;nan;101246.94;4863700;29;20473;-90
2022/04/18 05:46:08;;;;;;;17.53;5.00;;;;;;;14.70;nan;101249.47;4863720;29;20945;-90
2022/04/18 05:48:35;;;;;;;26.17;6.10;;;;;;;14.71;nan;101251.16;4848519;29;20453;-89
2022/04/18 05:51:03;;;;;;;20.97;5.80;;;;;;;14.68;nan;101240.59;4821277;29;20833;-89
2022/04/18 05:53:30;;;;;;;21.17;5.33;;;;;;;14.70;nan;101264.09;4871647;29;20831;-89
2022/04/18 05:55:58;;;;;;;17.90;5.20;;;;;;;14.73;nan;101246.31;4844699;29;20463;-90
2022/04/18 05:58:26;;;;;;;20.83;5.00;;;;;;;14.67;nan;101253.50;4845064;29;20455;-89
2022/04/18 06:00:54;;;;;;;16.03;5.23;;;;;;;14.71;nan;101262.19;4853434;29;20954;-89
2022/04/18 06:03:22;;;;;;;19.23;4.60;;;;;;;14.72;nan;101266.63;4833689;29;20462;-89
2022/04/18 06:05:50;;;;;;;27.37;5.83;;;;;;;14.69;nan;101259.63;4847832;29;20470;-90
2022/04/18 06:08:19;;;;;;;18.50;4.63;;;;;;;14.75;nan;101280.81;4863289;29;20515;-90
2022/04/18 06:10:47;;;;;;;26.10;6.10;;;;;;;14.72;nan;101272.97;4833158;29;20489;-89
2022/04/18 06:13:15;;;;;;;29.03;6.40;;;;;;;14.77;nan;101277.88;4833040;29;20462;-89
2022/04/18 06:15:44;;;;;;;19.20;5.27;;;;;;;14.72;nan;101270.22;4848280;29;20451;-90
2022/04/18 06:18:12;;;;;;;22.93;5.10;;;;;;;14.82;nan;101294.56;4847880;29;20462;-90
2022/04/18 06:20:43;;;;;;;23.53;5.10;;;;;;;14.84;nan;101290.56;4848190;29;20997;-90
2022/04/18 06:23:14;;;;;;;17.33;5.50;;;;;;;14.88;nan;101296.50;4848531;29;20466;-90
2022/04/18 06:25:43;;;;;;;16.10;4.67;;;;;;;14.92;nan;101297.78;4847465;29;20469;-90
2022/04/18 06:28:12;;;;;;;22.50;5.40;;;;;;;14.91;nan;101307.09;4848201;29;20458;-90
2022/04/18 06:30:40;;;;;;;23.33;5.40;;;;;;;14.97;nan;101299.94;4785720;29;20511;-90
2022/04/18 06:33:11;;;;;;;16.50;4.63;;;;;;;14.96;nan;101299.06;4771643;30;20831;-89
2022/04/18 06:35:40;;;;;;;13.00;3.77;;;;;;;15.05;nan;101300.56;4786261;29;20455;-89
2022/04/18 06:38:10;;;;;;;34.60;6.10;;;;;;;15.11;nan;101318.16;4771520;30;20455;-90
2022/04/18 06:40:37;;;;;;;18.00;5.00;;;;;;;15.13;nan;101310.53;4800750;29;20506;-89
2022/04/18 06:43:05;;;;;;;23.77;5.10;;;;;;;15.18;nan;101308.00;4786169;30;20461;-89
2022/04/18 06:45:34;;;;;;;21.77;5.90;;;;;;;15.24;nan;101309.91;4786030;29;20470;-89
2022/04/18 06:48:02;;;;;;;19.80;5.40;;;;;;;15.33;nan;101313.31;4787108;29;20446;-89
2022/04/18 06:50:29;;;;;;;15.10;4.93;;;;;;;15.33;nan;101305.88;4847540;29;20486;-89
2022/04/18 06:52:58;;;;;;;18.20;4.87;;;;;;;15.43;nan;101302.69;4847772;29;20450;-90
2022/04/18 06:56:58;;;;;;;19.00;4.60;;;;;;;15.48;nan;101319.44;4847451;29;20458;-89
2022/04/18 06:58:15;;;;;;;17.17;4.67;;;;;;;15.56;nan;101316.53;4865725;29;20486;-89
2022/04/18 07:00:43;;;;;;;18.77;5.00;;;;;;;15.59;nan;101321.59;4847225;29;20454;-90
2022/04/18 07:03:11;;;;;;;17.83;4.97;;;;;;;15.55;nan;101306.53;4862571;29;20464;-89
2022/04/18 07:05:42;;;;;;;17.53;4.10;;;;;;;15.60;nan;101323.28;4846756;29;20522;-90
2022/04/18 07:08:10;;;;;;;22.60;4.70;;;;;;;15.51;nan;101305.25;4861539;29;20461;-89
2022/04/18 07:10:38;;;;;;;17.33;4.23;;;;;;;15.51;nan;101314.38;4844379;29;20853;-88
2022/04/18 07:13:10;;;;;;;20.97;4.80;;;;;;;15.45;nan;101311.59;4859393;29;20459;-87
2022/04/18 07:15:39;;;;;;;15.57;4.90;;;;;;;15.51;nan;101321.78;4878000;29;20451;-89
2022/04/18 07:18:08;;;;;;;21.27;4.30;;;;;;;15.52;nan;101317.97;4848111;29;20462;-89
2022/04/18 07:20:36;;;;;;;20.30;4.63;;;;;;;15.57;nan;101320.13;4847516;29;20472;-88
2022/04/18 07:23:08;;;;;;;24.10;4.27;;;;;;;15.64;nan;101323.72;4848248;29;20454;-89
2022/04/18 07:25:36;;;;;;;31.40;4.60;;;;;;;15.69;nan;101324.78;4832795;29;21006;-88
2022/04/18 07:28:07;;;;;;;17.83;4.67;;;;;;;15.83;nan;101334.72;4848774;29;20823;-89
2022/04/18 07:30:35;;;;;;;14.30;4.60;;;;;;;15.85;nan;101338.09;4862418;29;20998;-89
2022/04/18 07:33:04;;;;;;;14.63;4.90;;;;;;;15.86;nan;101338.97;4866090;29;20509;-89
2022/04/18 07:35:34;;;;;;;18.70;4.50;;;;;;;15.85;nan;101343.63;4850299;29;20966;-89
2022/04/18 07:40:49;;;;;;;26.43;5.13;;;;;;;15.91;nan;101344.69;4858120;29;20953;-89
2022/04/18 07:43:21;;;;;;;12.17;4.93;;;;;;;15.86;nan;101328.78;4835301;29;20455;-89
2022/04/18 07:45:49;;;;;;;19.17;5.13;;;;;;;15.98;nan;101336.38;4864623;29;20455;-89
2022/04/18 07:48:18;;;;;;;21.30;5.20;;;;;;;16.02;nan;101334.91;4848031;29;20446;-89
2022/04/18 07:53:33;;;;;;;19.83;5.80;;;;;;;16.01;nan;101338.72;4859428;29;20458;-90
2022/04/18 07:56:01;;;;;;;16.33;4.60;;;;;;;16.05;nan;101337.22;4836019;29;20446;-89
2022/04/18 07:58:29;;;;;;;18.17;4.47;;;;;;;16.01;nan;101325.78;4831791;29;20456;-89
2022/04/18 08:00:57;;;;;;;22.80;5.63;;;;;;;16.08;nan;101325.78;4864870;29;20814;-88
2022/04/18 08:03:25;;;;;;;17.83;4.57;;;;;;;16.12;nan;101332.56;4865753;29;20442;-89
2022/04/18 08:05:56;;;;;;;13.43;4.53;;;;;;;16.16;nan;101339.34;4880818;29;20794;-90
2022/04/18 08:08:24;;;;;;;8.80;3.70;;;;;;;16.18;nan;101340.78;4861928;29;20473;-89
2022/04/18 08:10:52;;;;;;;18.80;4.57;;;;;;;16.14;nan;101336.78;4857768;29;20559;-90
2022/04/18 08:13:20;;;;;;;16.90;4.13;;;;;;;16.16;nan;101337.41;4865578;29;20446;-90
2022/04/18 08:15:48;;;;;;;20.83;4.50;;;;;;;16.22;nan;101338.44;4779764;29;20449;-89
2022/04/18 08:18:19;;;;;;;17.67;4.60;;;;;;;16.26;nan;101334.22;4783680;29;20860;-89
2022/04/18 08:20:49;;;;;;;14.83;4.13;;;;;;;16.39;nan;101338.81;4778590;29;20478;-90
2022/04/18 08:23:19;;;;;;;11.50;4.50;;;;;;;16.46;nan;101339.66;4790928;29;20539;-90
2022/04/18 08:25:47;;;;;;;11.00;3.97;;;;;;;16.51;nan;101323.31;4806823;29;20470;-88
2022/04/18 08:28:15;;;;;;;16.93;4.80;;;;;;;16.67;nan;101338.53;4804289;29;20455;-88
2022/04/18 08:30:43;;;;;;;12.13;4.27;;;;;;;16.69;nan;101328.13;4774563;29;20494;-90
2022/04/18 08:33:10;;;;;;;13.93;3.90;;;;;;;16.69;nan;101320.69;4785461;29;20459;-88
2022/04/18 08:35:41;;;;;;;22.13;4.90;;;;;;;16.80;nan;101324.66;4862753;29;20479;-89
2022/04/18 08:38:09;;;;;;;13.37;4.00;;;;;;;16.90;nan;101325.03;4846376;29;20463;-89
2022/04/18 08:40:38;;;;;;;20.13;4.07;;;;;;;16.97;nan;101314.78;4845520;29;20452;-89
2022/04/18 08:43:06;;;;;;;12.70;3.97;;;;;;;17.00;nan;101308.81;4845885;29;20448;-88
2022/04/18 08:45:34;;;;;;;13.23;3.50;;;;;;;17.10;nan;101311.97;4831642;29;20463;-89
2022/04/18 08:53:49;;;;;;;15.30;5.33;;;;;;;17.27;nan;101298.44;4825500;29;20520;-88
2022/04/18 08:56:23;;;;;;;12.23;3.50;;;;;;;17.49;nan;101329.31;4817174;29;20459;-89
2022/04/18 08:58:51;;;;;;;20.47;3.60;;;;;;;17.53;nan;101313.94;4846790;29;20448;-88
2022/04/18 09:01:22;;;;;;;16.97;4.60;;;;;;;17.50;nan;101306.97;4846196;29;20881;-91
2022/04/18 09:03:50;;;;;;;8.90;3.20;;;;;;;17.73;nan;101319.34;4816401;29;20451;-86
2022/04/18 09:06:22;;;;;;;12.33;3.43;;;;;;;17.79;nan;101313.75;4861881;29;20462;-85
2022/04/18 09:08:56;;;;;;;20.47;3.60;;;;;;;17.86;nan;101311.78;4855933;29;20962;-83
2022/04/18 09:11:30;;;;;;;17.03;4.10;;;;;;;17.97;nan;101325.91;4857933;29;20891;-84
2022/04/18 09:14:09;;;;;;;30.13;5.70;;;;;;;18.03;nan;101311.19;4842145;29;20459;-86
2022/04/18 09:16:37;;;;;;;15.47;4.07;;;;;;;18.08;nan;101305.81;4842655;29;20452;-86
2022/04/18 09:19:12;;;;;;;14.07;3.73;;;;;;;18.22;nan;101318.41;4815798;29;20963;-84
2022/04/18 09:21:56;;;;;;;18.40;4.10;;;;;;;18.36;nan;101319.94;4845295;29;20455;-84
2022/04/18 09:24:34;;;;;;;15.10;3.90;;;;;;;18.42;nan;101319.03;4862311;29;20466;-84
2022/04/18 09:27:06;;;;;;;12.00;3.37;;;;;;;18.48;nan;101317.22;4832141;29;20571;-84
2022/04/18 09:29:38;;;;;;;27.60;4.90;;;;;;;18.58;nan;101323.94;4845799;29;20456;-83
2022/04/18 09:32:08;;;;;;;20.33;5.37;;;;;;;18.54;nan;101314.38;4831163;29;20550;-84
2022/04/18 09:34:36;;;;;;;19.90;3.93;;;;;;;18.59;nan;101303.50;4845994;29;20459;-85
2022/04/18 09:37:11;;;;;;;12.87;3.53;;;;;;;18.75;nan;101303.94;4845483;29;20456;-84
2022/04/18 09:39:44;;;;;;;14.17;3.30;;;;;;;18.94;nan;101316.66;4830825;29;20462;-84
2022/04/18 09:42:14;;;;;;;19.20;4.63;;;;;;;19.00;nan;101314.88;4845635;29;20943;-84
2022/04/18 09:44:42;;;;;;;23.40;4.20;;;;;;;19.12;nan;101313.81;4831113;29;20462;-84
2022/04/18 09:47:17;;;;;;;19.53;4.37;;;;;;;19.25;nan;101316.38;4830600;29;20448;-84
2022/04/18 09:49:45;;;;;;;14.60;4.70;;;;;;;19.39;nan;101316.19;4845591;29;20538;-84
2022/04/18 09:52:17;;;;;;;13.37;4.40;;;;;;;19.44;nan;101319.91;4845504;29;20519;-84
2022/04/18 09:54:52;;;;;;;22.30;4.70;;;;;;;19.44;nan;101325.47;4830128;29;20519;-83
2022/04/18 09:57:24;;;;;;;13.53;3.63;;;;;;;19.51;nan;101322.63;4846552;29;20523;-84
2022/04/18 09:59:56;;;;;;;17.33;4.43;;;;;;;19.60;nan;101329.53;4815509;29;20455;-84
2022/04/18 10:02:25;;;;;;;14.27;3.80;;;;;;;19.65;nan;101326.84;4860386;29;20461;-84
2022/04/18 10:04:53;;;;;;;15.30;4.00;;;;;;;19.73;nan;101326.50;4861565;29;20455;-84
2022/04/18 10:07:21;;;;;;;19.57;3.93;;;;;;;19.85;nan;101335.66;4815283;29;20459;-84
2022/04/18 10:09:49;;;;;;;29.97;6.03;;;;;;;19.82;nan;101330.59;4815332;29;20495;-84
2022/04/18 10:12:17;;;;;;;17.43;4.50;;;;;;;19.82;nan;101322.28;4830300;29;20494;-84
2022/04/18 10:14:46;;;;;;;17.10;3.60;;;;;;;20.02;nan;101336.63;4815195;29;20959;-84
2022/04/18 10:17:14;;;;;;;16.13;3.93;;;;;;;20.26;nan;101336.63;4830505;29;20507;-84
2022/04/18 10:20:15;;;;;;;18.03;4.10;;;;;;;20.44;nan;101333.72;4831244;29;20475;-84
2022/04/18 10:23:13;;;;;;;19.67;4.03;;;;;;;20.45;nan;101340.13;4861274;29;20463;-84
2022/04/18 10:26:19;;;;;;;15.37;4.33;;;;;;;20.42;nan;101344.22;4861091;29;20452;-84
2022/04/18 10:28:48;;;;;;;18.57;4.37;;;;;;;20.52;nan;101350.03;4844910;29;20829;-84
2022/04/18 10:31:19;;;;;;;18.73;4.13;;;;;;;20.63;nan;101339.94;4814844;29;20510;-84
2022/04/18 10:33:47;;;;;;;15.63;4.40;;;;;;;20.68;nan;101340.91;4830292;29;20451;-84
2022/04/18 10:36:31;;;;;;;24.27;4.00;;;;;;;20.86;nan;101348.22;4844936;29;20455;-84
2022/04/18 10:39:06;;;;;;;18.63;3.63;;;;;;;20.87;nan;101349.06;4846354;29;20455;-84
2022/04/18 10:41:38;;;;;;;19.83;4.90;;;;;;;20.90;nan;101354.97;4859833;29;20451;-84
2022/04/18 10:44:10;;;;;;;19.10;3.90;;;;;;;20.78;nan;101345.84;4851725;29;20468;-84
2022/04/18 10:47:05;;;;;;;15.70;3.97;;;;;;;20.82;nan;101352.56;4827072;29;20463;-84
2022/04/18 10:49:33;;;;;;;19.20;3.13;;;;;;;20.82;nan;101346.16;4828214;29;20834;-84
2022/04/18 10:52:09;;;;;;;18.80;4.30;;;;;;;20.78;nan;101345.84;4841454;29;20487;-84
2022/04/18 10:54:37;;;;;;;14.67;4.23;;;;;;;20.80;nan;101342.78;4842040;29;20974;-84
2022/04/18 10:57:11;;;;;;;20.13;4.70;;;;;;;20.89;nan;101347.72;4826473;29;20459;-84
2022/04/18 10:59:42;;;;;;;19.20;3.60;;;;;;;21.07;nan;101357.81;4827474;29;20587;-84
2022/04/18 11:02:42;;;;;;;16.20;3.53;;;;;;;21.18;nan;101362.44;4856114;29;20460;-84
2022/04/18 11:05:11;;;;;;;20.03;4.50;;;;;;;21.13;nan;101353.19;4858641;29;20458;-84
2022/04/18 11:07:46;;;;;;;16.23;4.10;;;;;;;21.06;nan;101346.94;4832099;29;20459;-84
2022/04/18 11:10:19;;;;;;;25.17;4.67;;;;;;;21.01;nan;101353.22;4847547;29;20825;-84
2022/04/18 11:12:50;;;;;;;23.67;4.00;;;;;;;20.91;nan;101361.38;4847648;29;20995;-84
2022/04/18 11:15:19;;;;;;;20.50;4.60;;;;;;;21.02;nan;101352.97;4848041;29;20456;-84
2022/04/18 11:17:46;;;;;;;17.23;3.73;;;;;;;21.14;nan;101361.28;4817297;29;20459;-84
2022/04/18 11:20:32;;;;;;;25.87;4.53;;;;;;;20.99;nan;101355.41;4835256;29;20990;-84
2022/04/18 11:23:22;;;;;;;13.57;3.60;;;;;;;20.99;nan;101353.47;4834995;29;20459;-84
2022/04/18 11:25:52;;;;;;;11.30;3.20;;;;;;;20.96;nan;101326.19;4865526;29;20454;-84
2022/04/18 11:28:20;;;;;;;14.27;4.10;;;;;;;21.10;nan;101343.41;4835373;29;20515;-84
2022/04/18 11:30:47;;;;;;;14.67;3.73;;;;;;;21.26;nan;101359.31;4835140;29;20464;-84
2022/04/18 11:33:17;;;;;;;20.83;4.20;;;;;;;21.28;nan;101350.72;4880787;29;20490;-84
2022/04/18 11:35:45;;;;;;;19.90;5.10;;;;;;;21.41;nan;101344.84;4865877;29;20462;-84
2022/04/18 11:38:13;;;;;;;17.90;3.33;;;;;;;21.52;nan;101352.28;4835357;29;20964;-84
2022/04/18 11:40:42;;;;;;;11.27;3.20;;;;;;;21.52;nan;101349.50;4850442;29;20507;-84
2022/04/18 11:43:12;;;;;;;16.20;3.20;;;;;;;21.48;nan;101339.13;4865663;29;20459;-84
2022/04/18 11:45:40;;;;;;;24.70;5.30;;;;;;;21.28;nan;101340.44;4850394;29;20486;-85
2022/04/18 11:48:10;;;;;;;17.07;3.63;;;;;;;21.31;nan;101333.53;4850495;29;20458;-84
2022/04/18 11:50:41;;;;;;;18.40;3.57;;;;;;;21.52;nan;101331.97;4850135;29;20451;-84
2022/04/18 11:53:12;;;;;;;11.40;3.23;;;;;;;21.50;nan;101332.22;4880085;29;20487;-83
2022/04/18 11:55:44;;;;;;;15.67;4.00;;;;;;;21.42;nan;101327.06;4865391;29;20462;-84
2022/04/18 11:58:11;;;;;;;14.03;3.30;;;;;;;21.43;nan;101316.78;4865232;29;20825;-84
2022/04/18 12:06:47;;;;;;;12.73;3.50;;;;;;;21.53;nan;101328.09;4852854;29;20458;-84
2022/04/18 12:09:26;;;;;;;17.60;3.40;;;;;;;21.53;nan;101316.97;4865587;29;20956;-85
2022/04/18 12:11:54;;;;;;;15.20;3.33;;;;;;;21.59;nan;101335.41;4835498;29;20491;-84
2022/04/18 12:14:21;;;;;;;12.17;2.80;;;;;;;21.44;nan;101324.03;4835031;29;20487;-84